Terminal Aerodrome Forecast
Issued by NWS Knoxville/Tri Cities, TN

Home | Current Version | Previous Version | Text Only | Print | Product List | Glossary On
Versions: 1 2 3 4 5 6 7 8 9 10 11 12 13 14 15 16 17
000
FTUS44 KMRX 242336
TAFCHA
TAF
KCHA 242336Z 2500/2524 VRB02KT P6SM FEW050 SCT100 SCT200
     FM251000 00000KT 4SM BR SKC
     FM251400 02003KT P6SM FEW045 SCT250=

USA.gov is the U.S. government's official web portal to all federal, state and local government web resources and services.